Time;durP1;ratioP1;P1;durP2;ratioP2;P2;SDS_P1;SDS_P2;PMS_P1;PMS_P2;Temp;Humidity;BMP_temperature;BMP_pressure;BME280_temperature;BME280_humidity;BME280_pressure;Samples;Min_cycle;Max_cycle;Signal;HPM_P1;HPM_P2
2021/07/22 00:01:38;;;;;;;0.50;0.30;;;18.00;99.90;;;;;;5037537;28;20457;-84
2021/07/22 00:04:05;;;;;;;0.50;0.30;;;18.10;99.90;;;;;;5038666;28;20449;-84
2021/07/22 00:06:32;;;;;;;0.50;0.30;;;18.10;99.90;;;;;;5038896;28;20808;-84
2021/07/22 00:09:00;;;;;;;0.50;0.40;;;18.20;99.90;;;;;;5041565;28;20459;-84
2021/07/22 00:11:27;;;;;;;0.50;0.30;;;18.30;99.90;;;;;;5041127;28;20470;-83
2021/07/22 00:13:53;;;;;;;0.50;0.30;;;18.40;99.90;;;;;;5042139;28;20450;-84
2021/07/22 00:16:20;;;;;;;0.50;0.30;;;18.40;99.90;;;;;;5041806;28;20786;-85
2021/07/22 00:18:47;;;;;;;0.50;0.30;;;18.40;99.90;;;;;;5042147;28;20470;-83
2021/07/22 00:21:14;;;;;;;0.50;0.30;;;18.40;99.90;;;;;;5041493;28;20430;-84
2021/07/22 00:23:41;;;;;;;0.50;0.30;;;18.40;99.90;;;;;;5041611;28;20804;-84
2021/07/22 00:26:09;;;;;;;0.50;0.30;;;18.40;99.90;;;;;;5041480;28;20469;-82
2021/07/22 00:28:36;;;;;;;0.50;0.40;;;18.50;99.90;;;;;;5041107;28;20465;-85
2021/07/22 00:31:02;;;;;;;0.50;0.30;;;18.60;99.90;;;;;;5040981;28;20474;-84
2021/07/22 00:33:29;;;;;;;0.50;0.30;;;18.60;99.90;;;;;;5041122;28;20453;-84
2021/07/22 00:35:58;;;;;;;0.50;0.30;;;18.70;99.90;;;;;;5041449;28;20446;-84
2021/07/22 00:38:25;;;;;;;0.60;0.57;;;18.80;99.90;;;;;;5040639;28;20478;-83
2021/07/22 00:40:51;;;;;;;0.50;0.30;;;18.80;99.90;;;;;;5041118;28;20435;-84
2021/07/22 00:43:19;;;;;;;0.50;0.40;;;18.80;99.90;;;;;;5040938;28;20442;-84
2021/07/22 00:45:46;;;;;;;0.50;0.30;;;18.80;99.90;;;;;;5041226;28;20442;-84
2021/07/22 00:48:13;;;;;;;0.50;0.30;;;18.90;99.90;;;;;;5041281;28;20462;-84
2021/07/22 00:50:40;;;;;;;0.50;0.30;;;18.90;99.90;;;;;;5040711;28;20457;-84
2021/07/22 00:53:06;;;;;;;0.50;0.30;;;18.90;99.90;;;;;;5040740;28;20447;-84
2021/07/22 00:55:33;;;;;;;0.50;0.30;;;18.90;99.90;;;;;;5041365;28;20430;-84
2021/07/22 00:58:00;;;;;;;0.50;0.40;;;18.90;99.90;;;;;;5041129;28;20450;-83
2021/07/22 01:00:28;;;;;;;0.50;0.30;;;18.90;99.90;;;;;;5040550;28;20774;-84
2021/07/22 01:02:54;;;;;;;0.90;0.90;;;18.90;99.90;;;;;;5041099;28;20442;-84
2021/07/22 01:05:21;;;;;;;0.60;0.30;;;18.90;99.90;;;;;;5040843;28;20540;-85
2021/07/22 01:07:48;;;;;;;0.50;0.37;;;18.90;99.90;;;;;;5040945;28;20526;-85
2021/07/22 01:10:15;;;;;;;0.50;0.30;;;18.90;99.90;;;;;;5040210;28;20446;-80
2021/07/22 01:12:42;;;;;;;0.50;0.30;;;18.90;99.90;;;;;;5046013;28;20987;-83
2021/07/22 01:15:09;;;;;;;0.50;0.30;;;18.90;99.90;;;;;;5053896;28;20427;-82
2021/07/22 01:17:42;;;;;;;0.50;0.30;;;18.90;99.90;;;;;;5047499;28;20459;-85
2021/07/22 01:20:13;;;;;;;0.50;0.30;;;18.90;99.90;;;;;;5043859;28;20427;-81
2021/07/22 01:22:40;;;;;;;0.50;0.30;;;18.80;99.90;;;;;;5042733;28;20458;-84
2021/07/22 01:25:08;;;;;;;0.50;0.30;;;18.80;99.90;;;;;;5042890;28;20449;-84
2021/07/22 01:27:35;;;;;;;0.50;0.30;;;18.70;99.90;;;;;;5043118;28;20466;-84
2021/07/22 01:30:01;;;;;;;0.50;0.30;;;18.60;99.90;;;;;;5043234;28;21177;-84
2021/07/22 01:32:28;;;;;;;0.50;0.30;;;18.50;99.90;;;;;;5042430;28;20995;-85
2021/07/22 01:34:55;;;;;;;0.50;0.30;;;18.40;99.90;;;;;;5042688;28;20450;-84
2021/07/22 01:37:23;;;;;;;0.50;0.30;;;18.30;99.90;;;;;;5042472;28;20485;-84
2021/07/22 01:39:50;;;;;;;0.50;0.40;;;18.20;99.90;;;;;;5042369;28;20449;-84
2021/07/22 01:42:17;;;;;;;0.50;0.30;;;18.10;99.90;;;;;;5041539;28;20446;-83
2021/07/22 01:44:44;;;;;;;0.50;0.30;;;18.10;99.90;;;;;;5041973;28;20443;-84
2021/07/22 01:47:10;;;;;;;0.50;0.30;;;18.10;99.90;;;;;;5041732;28;20462;-84
2021/07/22 01:49:37;;;;;;;0.50;0.30;;;18.00;99.90;;;;;;5041866;28;20437;-84
2021/07/22 01:52:05;;;;;;;0.50;0.30;;;18.00;99.90;;;;;;5041568;28;20470;-84
2021/07/22 01:54:34;;;;;;;0.50;0.30;;;17.80;99.90;;;;;;5041827;28;20951;-84
2021/07/22 01:57:01;;;;;;;0.50;0.30;;;17.80;99.90;;;;;;5041697;28;20466;-84
2021/07/22 01:59:35;;;;;;;0.50;0.30;;;17.70;99.90;;;;;;5040866;28;20517;-83
2021/07/22 02:02:03;;;;;;;0.50;0.40;;;17.60;99.90;;;;;;5040844;28;20474;-83
2021/07/22 02:04:30;;;;;;;0.50;0.30;;;17.50;99.90;;;;;;5041140;28;20438;-85
2021/07/22 02:06:56;;;;;;;0.50;0.30;;;17.50;99.90;;;;;;5040849;28;20470;-85
2021/07/22 02:09:23;;;;;;;0.50;0.40;;;17.30;99.90;;;;;;5039998;28;20449;-83
2021/07/22 02:11:52;;;;;;;0.50;0.30;;;17.20;99.90;;;;;;5040258;28;20475;-84
2021/07/22 02:14:19;;;;;;;0.50;0.30;;;17.00;99.90;;;;;;5041139;28;20453;-83
2021/07/22 02:16:46;;;;;;;0.50;0.40;;;16.80;99.90;;;;;;5040702;28;20442;-83
2021/07/22 02:19:12;;;;;;;0.50;0.30;;;16.70;99.90;;;;;;5040507;28;20446;-85
2021/07/22 02:21:40;;;;;;;0.50;0.30;;;16.70;99.90;;;;;;5039600;28;20455;-84
2021/07/22 02:24:07;;;;;;;0.50;0.40;;;16.60;99.90;;;;;;5039915;28;20443;-85
2021/07/22 02:26:34;;;;;;;0.50;0.40;;;16.60;99.90;;;;;;5039782;28;20441;-84
2021/07/22 02:29:03;;;;;;;0.50;0.33;;;16.50;99.90;;;;;;5038875;28;20463;-85
2021/07/22 02:31:30;;;;;;;0.50;0.40;;;16.40;99.90;;;;;;5038416;28;20477;-83
2021/07/22 02:33:57;;;;;;;0.50;0.40;;;16.30;99.90;;;;;;5038831;28;20442;-83
2021/07/22 02:36:23;;;;;;;0.50;0.40;;;16.20;99.90;;;;;;5038662;28;20447;-84
2021/07/22 02:38:50;;;;;;;0.50;0.40;;;16.30;99.90;;;;;;5038975;28;20464;-83
2021/07/22 02:41:17;;;;;;;0.50;0.37;;;16.30;99.90;;;;;;5039019;28;20438;-84
2021/07/22 02:43:44;;;;;;;0.50;0.40;;;16.20;99.90;;;;;;5039369;28;20449;-84
2021/07/22 02:46:13;;;;;;;0.50;0.40;;;16.20;99.90;;;;;;5038192;28;20839;-84
2021/07/22 02:48:40;;;;;;;0.50;0.40;;;16.20;99.90;;;;;;5039282;28;20454;-84
2021/07/22 02:51:08;;;;;;;0.60;0.60;;;16.20;99.90;;;;;;5038969;28;20435;-84
2021/07/22 02:53:36;;;;;;;0.50;0.40;;;16.20;99.90;;;;;;5038917;28;20445;-84
2021/07/22 02:56:04;;;;;;;0.50;0.40;;;16.10;99.90;;;;;;5038264;28;20452;-84
2021/07/22 02:58:31;;;;;;;0.50;0.37;;;16.10;99.90;;;;;;5039066;28;20517;-83
2021/07/22 03:00:58;;;;;;;0.50;0.40;;;16.00;99.90;;;;;;5038905;28;20436;-84
2021/07/22 03:03:26;;;;;;;0.50;0.40;;;16.00;99.90;;;;;;5043486;28;20438;-84
2021/07/22 03:05:53;;;;;;;0.50;0.40;;;16.00;99.90;;;;;;5041963;28;20425;-81
2021/07/22 03:08:21;;;;;;;0.50;0.30;;;16.00;99.90;;;;;;5037936;28;20470;-84
2021/07/22 03:10:48;;;;;;;0.50;0.40;;;16.00;99.90;;;;;;5038377;28;20470;-83
2021/07/22 03:13:15;;;;;;;0.50;0.33;;;16.00;99.90;;;;;;5038128;28;20838;-83
2021/07/22 03:15:41;;;;;;;0.50;0.40;;;16.00;99.90;;;;;;5038890;28;20452;-84
2021/07/22 03:18:08;;;;;;;0.50;0.40;;;16.10;99.90;;;;;;5038579;28;20466;-82
2021/07/22 03:20:36;;;;;;;0.50;0.40;;;16.20;99.90;;;;;;5038529;28;20442;-83
2021/07/22 03:23:03;;;;;;;0.50;0.30;;;16.40;99.90;;;;;;5038102;28;20886;-84
2021/07/22 03:25:30;;;;;;;0.50;0.33;;;16.50;99.90;;;;;;5037630;28;20533;-84
2021/07/22 03:27:59;;;;;;;0.50;0.30;;;16.60;99.90;;;;;;5037818;28;20826;-84
2021/07/22 03:30:27;;;;;;;0.50;0.40;;;16.80;99.90;;;;;;5037658;28;20627;-84
2021/07/22 03:32:54;;;;;;;0.60;0.40;;;16.80;99.90;;;;;;5037366;28;20485;-83
2021/07/22 03:35:21;;;;;;;0.50;0.40;;;16.90;99.90;;;;;;5037296;28;20447;-84
2021/07/22 03:37:49;;;;;;;0.50;0.30;;;16.90;99.90;;;;;;5042744;28;20472;-82
2021/07/22 03:40:16;;;;;;;0.50;0.40;;;16.90;99.90;;;;;;5046911;28;20488;-81
2021/07/22 03:42:42;;;;;;;0.50;0.40;;;16.90;99.90;;;;;;5043483;28;20441;-82
2021/07/22 03:45:10;;;;;;;0.50;0.40;;;16.80;99.90;;;;;;5050998;28;20422;-84
2021/07/22 03:47:37;;;;;;;0.50;0.30;;;16.90;99.90;;;;;;5045781;28;20454;-83
2021/07/22 03:50:04;;;;;;;0.50;0.40;;;16.80;99.90;;;;;;5028590;28;20445;-81
2021/07/22 03:52:31;;;;;;;0.50;0.30;;;16.80;99.90;;;;;;5026218;28;20489;-82
2021/07/22 03:54:59;;;;;;;0.50;0.40;;;16.70;99.90;;;;;;5026002;28;20438;-82
2021/07/22 03:57:26;;;;;;;0.50;0.30;;;16.70;99.90;;;;;;5025042;28;20462;-83
2021/07/22 03:59:53;;;;;;;0.50;0.30;;;16.70;99.90;;;;;;5044986;28;20438;-83
2021/07/22 04:02:19;;;;;;;0.50;0.30;;;16.70;99.90;;;;;;5045048;28;20518;-84
2021/07/22 04:04:46;;;;;;;0.50;0.40;;;16.70;99.90;;;;;;5045090;28;20443;-84
2021/07/22 04:07:13;;;;;;;0.50;0.30;;;16.60;99.90;;;;;;5044359;28;20469;-84
2021/07/22 04:09:40;;;;;;;0.50;0.30;;;16.60;99.90;;;;;;5043354;28;20452;-82
2021/07/22 04:12:09;;;;;;;0.50;0.40;;;16.60;99.90;;;;;;5043389;28;20544;-83
2021/07/22 04:14:35;;;;;;;0.50;0.40;;;16.70;99.90;;;;;;5044720;28;20508;-82
2021/07/22 04:17:02;;;;;;;0.50;0.40;;;16.70;99.90;;;;;;5043744;28;20461;-83
2021/07/22 04:19:29;;;;;;;0.50;0.40;;;16.70;99.90;;;;;;5044581;28;20441;-84
2021/07/22 04:21:56;;;;;;;0.50;0.40;;;16.80;99.90;;;;;;5043395;28;20481;-83
2021/07/22 04:24:22;;;;;;;0.60;0.60;;;16.80;99.90;;;;;;5043538;28;20452;-84
2021/07/22 04:26:49;;;;;;;0.70;0.67;;;16.80;99.90;;;;;;5043889;28;20446;-83
2021/07/22 04:29:17;;;;;;;1.73;1.07;;;16.90;99.90;;;;;;5043526;28;20525;-83
2021/07/22 04:31:44;;;;;;;0.60;0.50;;;17.00;99.90;;;;;;5031902;28;20480;-84
2021/07/22 04:34:11;;;;;;;0.50;0.40;;;17.00;99.90;;;;;;5042472;28;20484;-85
2021/07/22 04:36:37;;;;;;;3.50;0.80;;;17.10;99.90;;;;;;5043882;28;20438;-84
2021/07/22 04:39:04;;;;;;;6.93;2.00;;;17.20;99.90;;;;;;5033470;28;20459;-84
2021/07/22 04:41:31;;;;;;;0.50;0.40;;;17.20;99.90;;;;;;5023017;28;20510;-85
2021/07/22 04:43:57;;;;;;;0.50;0.40;;;17.30;99.90;;;;;;5023935;28;20439;-84
2021/07/22 04:46:25;;;;;;;0.50;0.30;;;17.40;99.90;;;;;;5022894;28;20439;-83
2021/07/22 04:48:52;;;;;;;0.50;0.50;;;17.40;99.90;;;;;;5030893;28;20858;-85
2021/07/22 04:51:19;;;;;;;0.50;0.40;;;17.50;99.90;;;;;;5041701;28;20443;-84
2021/07/22 04:53:46;;;;;;;0.50;0.40;;;17.50;99.90;;;;;;5040777;28;20497;-84
2021/07/22 04:56:12;;;;;;;0.50;0.30;;;17.60;99.90;;;;;;5041031;28;20442;-85
2021/07/22 04:58:39;;;;;;;0.80;0.70;;;17.60;99.90;;;;;;5041177;28;20550;-84
2021/07/22 05:01:06;;;;;;;0.80;0.60;;;17.70;99.90;;;;;;5042505;28;20439;-83
2021/07/22 05:03:34;;;;;;;0.50;0.40;;;17.80;99.90;;;;;;5042911;28;20446;-84
2021/07/22 05:06:00;;;;;;;0.50;0.40;;;17.80;99.90;;;;;;5045311;28;20453;-83
2021/07/22 05:08:27;;;;;;;0.50;0.40;;;17.90;99.90;;;;;;5046240;28;20472;-83
2021/07/22 05:10:57;;;;;;;0.50;0.40;;;17.90;99.90;;;;;;5044771;28;20452;-83
2021/07/22 05:13:24;;;;;;;0.50;0.30;;;18.00;99.90;;;;;;5042641;28;20488;-84
2021/07/22 05:15:51;;;;;;;0.50;0.30;;;18.00;99.90;;;;;;5042545;28;20506;-84
2021/07/22 05:18:17;;;;;;;0.50;0.30;;;18.10;99.90;;;;;;5042063;28;20455;-84
2021/07/22 05:20:46;;;;;;;0.83;0.80;;;18.10;99.90;;;;;;5042536;28;20481;-85
2021/07/22 05:23:12;;;;;;;0.50;0.30;;;18.20;99.90;;;;;;5042589;28;20438;-85
2021/07/22 05:25:39;;;;;;;0.50;0.40;;;18.30;99.90;;;;;;5042409;28;20446;-84
2021/07/22 05:28:06;;;;;;;1.90;1.80;;;18.40;99.90;;;;;;5042729;28;20458;-85
2021/07/22 05:30:32;;;;;;;1.13;1.03;;;18.40;99.90;;;;;;5041937;28;20434;-84
2021/07/22 05:32:59;;;;;;;0.90;0.77;;;18.50;99.90;;;;;;5041253;28;20486;-85
2021/07/22 05:35:26;;;;;;;0.90;0.90;;;18.50;99.90;;;;;;5041749;28;20442;-84
2021/07/22 05:37:55;;;;;;;1.50;1.43;;;18.60;99.90;;;;;;5041074;28;20576;-85
2021/07/22 05:40:23;;;;;;;1.57;1.47;;;18.70;99.90;;;;;;5041629;28;20466;-83
2021/07/22 05:42:50;;;;;;;3.93;2.00;;;18.80;99.90;;;;;;5044726;28;20450;-79
2021/07/22 05:45:17;;;;;;;0.50;0.30;;;18.90;99.90;;;;;;5045263;28;20529;-84
2021/07/22 05:47:43;;;;;;;0.50;0.40;;;19.00;99.90;;;;;;5039257;28;20862;-82
2021/07/22 05:50:11;;;;;;;0.50;0.30;;;19.00;99.90;;;;;;5038198;28;20453;-83
2021/07/22 05:52:37;;;;;;;0.60;0.60;;;19.00;99.90;;;;;;5041723;28;20533;-86
2021/07/22 05:55:06;;;;;;;0.50;0.30;;;19.10;99.90;;;;;;5042949;28;20457;-84
2021/07/22 05:57:36;;;;;;;0.50;0.40;;;19.20;99.90;;;;;;5041212;28;20557;-85
2021/07/22 06:00:03;;;;;;;0.50;0.30;;;19.30;99.90;;;;;;5040038;28;20435;-85
2021/07/22 06:02:30;;;;;;;0.50;0.30;;;19.30;99.90;;;;;;5044898;28;20465;-85
2021/07/22 06:04:57;;;;;;;4.00;2.40;;;19.50;99.90;;;;;;5049190;28;20442;-84
2021/07/22 06:07:24;;;;;;;0.50;0.50;;;19.70;99.90;;;;;;5042603;28;20454;-86
2021/07/22 06:09:50;;;;;;;0.50;0.50;;;19.90;99.90;;;;;;5040684;28;20442;-86
2021/07/22 06:12:18;;;;;;;2.13;0.70;;;20.10;99.90;;;;;;5039471;28;20445;-86
2021/07/22 06:14:45;;;;;;;0.50;0.40;;;20.30;99.90;;;;;;5050300;28;20443;-85
2021/07/22 06:17:12;;;;;;;1.83;1.73;;;20.50;99.90;;;;;;5042819;28;20493;-86
2021/07/22 06:19:38;;;;;;;1.47;0.77;;;21.10;99.90;;;;;;5043326;28;20441;-85
2021/07/22 06:22:05;;;;;;;0.60;0.60;;;21.80;99.90;;;;;;5041193;28;20436;-84
2021/07/22 06:24:32;;;;;;;1.53;1.13;;;22.40;99.90;;;;;;5036109;28;20430;-85
2021/07/22 06:26:59;;;;;;;1.17;1.07;;;23.30;99.90;;;;;;5036137;28;20530;-84
2021/07/22 06:29:27;;;;;;;0.90;0.90;;;24.10;99.90;;;;;;5035714;28;20438;-84
2021/07/22 06:31:54;;;;;;;0.50;0.40;;;24.30;99.90;;;;;;5034694;28;20441;-85
2021/07/22 06:34:21;;;;;;;0.50;0.40;;;24.70;99.90;;;;;;5035143;28;20485;-82
2021/07/22 06:36:47;;;;;;;0.50;0.40;;;25.10;99.90;;;;;;5035363;28;20451;-86
2021/07/22 06:39:15;;;;;;;1.40;1.30;;;25.50;99.90;;;;;;5034717;28;20476;-85
2021/07/22 06:41:42;;;;;;;0.50;0.40;;;25.60;99.90;;;;;;5035567;28;20442;-83
2021/07/22 06:44:08;;;;;;;0.80;0.80;;;26.00;99.90;;;;;;5036207;28;20434;-85
2021/07/22 06:46:36;;;;;;;5.70;2.57;;;25.70;99.90;;;;;;5035216;28;20454;-85
2021/07/22 06:49:03;;;;;;;1.60;1.40;;;25.30;99.90;;;;;;5035575;28;20458;-85
2021/07/22 06:51:30;;;;;;;6.30;3.43;;;25.50;99.90;;;;;;5034238;28;20439;-83
2021/07/22 06:53:57;;;;;;;1.23;0.80;;;25.60;99.90;;;;;;5033258;28;20485;-85
2021/07/22 06:56:23;;;;;;;2.40;2.20;;;24.60;99.90;;;;;;5034197;28;20438;-84
2021/07/22 06:58:50;;;;;;;0.50;0.30;;;24.00;99.90;;;;;;5034792;28;20463;-84
2021/07/22 07:01:17;;;;;;;1.07;0.87;;;23.50;99.90;;;;;;5034097;28;20441;-85
2021/07/22 07:03:45;;;;;;;1.33;0.97;;;23.20;99.90;;;;;;5033197;28;20814;-84
2021/07/22 07:06:12;;;;;;;1.13;1.07;;;22.60;99.90;;;;;;5034219;28;20448;-85
2021/07/22 07:08:39;;;;;;;1.50;1.37;;;22.20;99.90;;;;;;5030336;28;20829;-85
2021/07/22 07:11:08;;;;;;;3.33;1.10;;;22.00;99.90;;;;;;5032905;28;20440;-84
2021/07/22 07:13:35;;;;;;;3.23;2.93;;;21.90;99.90;;;;;;5033468;28;20515;-85
2021/07/22 07:16:04;;;;;;;1.47;1.37;;;21.90;99.90;;;;;;5034222;28;20447;-85
2021/07/22 07:18:31;;;;;;;0.73;0.70;;;21.90;99.90;;;;;;5033781;28;20472;-85
2021/07/22 07:21:03;;;;;;;8.40;2.20;;;21.60;99.90;;;;;;5033672;28;20439;-84
2021/07/22 07:23:30;;;;;;;7.10;3.90;;;21.40;99.90;;;;;;5034738;28;20427;-85
2021/07/22 07:25:56;;;;;;;1.53;0.73;;;21.20;99.90;;;;;;5034830;28;20530;-81
2021/07/22 07:28:23;;;;;;;2.07;1.80;;;21.10;99.90;;;;;;5034287;28;20472;-86
2021/07/22 07:30:50;;;;;;;2.10;1.07;;;21.10;99.90;;;;;;5033804;28;20439;-82
2021/07/22 07:33:17;;;;;;;0.60;0.60;;;21.00;99.90;;;;;;5034546;28;20480;-81
2021/07/22 07:35:44;;;;;;;1.20;1.13;;;21.00;99.90;;;;;;5035857;28;20451;-84
2021/07/22 07:38:12;;;;;;;0.50;0.30;;;21.20;99.90;;;;;;5034243;28;20480;-85
2021/07/22 07:40:39;;;;;;;0.50;0.40;;;21.50;99.90;;;;;;5035029;28;20965;-84
2021/07/22 07:43:05;;;;;;;6.97;2.03;;;21.70;99.90;;;;;;5034755;28;20910;-85
2021/07/22 07:45:32;;;;;;;0.80;0.80;;;21.80;99.90;;;;;;5035778;28;20819;-86
2021/07/22 07:47:59;;;;;;;0.53;0.47;;;21.80;99.90;;;;;;5035259;28;20508;-85
2021/07/22 07:50:26;;;;;;;0.50;0.30;;;21.90;99.90;;;;;;5034716;28;20441;-84
2021/07/22 07:52:52;;;;;;;3.87;2.63;;;22.00;99.90;;;;;;5034949;28;20437;-82
2021/07/22 07:55:20;;;;;;;0.50;0.30;;;22.20;99.90;;;;;;5035546;28;20811;-84
2021/07/22 07:57:47;;;;;;;0.50;0.30;;;22.40;99.90;;;;;;5036290;28;20746;-85
2021/07/22 08:00:14;;;;;;;7.73;1.90;;;22.40;99.90;;;;;;5037024;28;20448;-80
2021/07/22 08:02:41;;;;;;;0.50;0.30;;;22.40;99.90;;;;;;5036936;28;20456;-84
2021/07/22 08:05:08;;;;;;;2.70;0.73;;;22.40;99.90;;;;;;5036993;28;20440;-85
2021/07/22 08:07:35;;;;;;;2.40;2.30;;;22.50;99.90;;;;;;5036706;28;20480;-82
2021/07/22 08:10:03;;;;;;;0.50;0.30;;;22.60;99.90;;;;;;5031342;28;20445;-86
2021/07/22 08:12:31;;;;;;;0.50;0.40;;;22.70;99.90;;;;;;5040023;28;20445;-84
2021/07/22 08:14:58;;;;;;;0.50;0.40;;;22.70;99.90;;;;;;5047214;28;20500;-85
2021/07/22 08:17:26;;;;;;;0.50;0.30;;;22.90;99.90;;;;;;5035484;28;20484;-84
2021/07/22 08:19:58;;;;;;;2.40;2.10;;;23.20;99.90;;;;;;5035490;28;20448;-85
2021/07/22 08:22:25;;;;;;;2.43;0.97;;;23.40;99.90;;;;;;5035661;28;20445;-85
2021/07/22 08:24:52;;;;;;;2.60;2.40;;;23.70;99.90;;;;;;5036118;28;20483;-84
2021/07/22 08:27:25;;;;;;;0.50;0.30;;;24.00;99.90;;;;;;5035842;28;20461;-85
2021/07/22 08:29:53;;;;;;;0.70;0.53;;;24.20;99.90;;;;;;5040110;28;20454;-85
2021/07/22 08:32:20;;;;;;;0.60;0.40;;;25.20;99.90;;;;;;5039784;28;20438;-82
2021/07/22 08:34:47;;;;;;;0.50;0.40;;;25.60;99.90;;;;;;5038672;28;20470;-85
2021/07/22 08:37:14;;;;;;;0.50;0.50;;;25.80;99.90;;;;;;5040476;28;20466;-85
2021/07/22 08:39:42;;;;;;;1.53;1.10;;;26.10;99.90;;;;;;5039117;28;20441;-84
2021/07/22 08:42:11;;;;;;;2.30;2.10;;;26.70;99.90;;;;;;5038445;28;20469;-84
2021/07/22 08:44:40;;;;;;;2.43;1.43;;;27.30;99.90;;;;;;5038837;28;20442;-85
2021/07/22 08:47:09;;;;;;;2.13;2.03;;;28.00;99.90;;;;;;5039539;28;20972;-83
2021/07/22 08:49:37;;;;;;;0.53;0.50;;;28.90;98.30;;;;;;5040146;28;20444;-87
2021/07/22 08:52:08;;;;;;;0.50;0.30;;;30.50;96.60;;;;;;5039981;28;20437;-84
2021/07/22 08:54:35;;;;;;;1.33;1.00;;;32.20;83.60;;;;;;5039818;28;20569;-84
2021/07/22 08:57:03;;;;;;;0.50;0.30;;;33.30;71.60;;;;;;5041774;28;20811;-84
2021/07/22 08:59:31;;;;;;;0.50;0.30;;;34.40;69.50;;;;;;5040616;28;20447;-83
2021/07/22 09:02:00;;;;;;;1.17;0.60;;;35.50;62.20;;;;;;5040340;28;20855;-82
2021/07/22 09:04:28;;;;;;;0.50;0.40;;;35.00;60.30;;;;;;5040577;28;20431;-82
2021/07/22 09:06:55;;;;;;;4.40;2.20;;;36.10;60.10;;;;;;5040076;28;20443;-83
2021/07/22 09:09:22;;;;;;;0.40;0.40;;;36.80;57.30;;;;;;5034922;28;20461;-83
2021/07/22 09:11:56;;;;;;;1.90;1.43;;;36.70;57.00;;;;;;5039193;28;20805;-83
2021/07/22 09:14:24;;;;;;;0.40;0.40;;;36.80;56.90;;;;;;5040451;28;20477;-84
2021/07/22 09:16:51;;;;;;;0.40;0.30;;;36.40;57.10;;;;;;5039813;28;20446;-86
2021/07/22 09:19:39;;;;;;;0.80;0.40;;;36.20;58.40;;;;;;5040427;28;20450;-84
2021/07/22 09:22:07;;;;;;;0.50;0.50;;;36.90;58.40;;;;;;5041737;28;20509;-83
2021/07/22 09:24:58;;;;;;;4.13;1.60;;;37.40;55.20;;;;;;5042254;28;20448;-84
2021/07/22 09:27:38;;;;;;;0.77;0.77;;;38.20;54.80;;;;;;5031749;28;20465;-84
2021/07/22 09:30:06;;;;;;;0.50;0.50;;;38.10;56.30;;;;;;5041192;28;20450;-81
2021/07/22 09:32:34;;;;;;;0.40;0.30;;;38.00;53.60;;;;;;5039502;28;20434;-85
2021/07/22 09:35:09;;;;;;;1.07;0.90;;;37.80;53.80;;;;;;5041201;28;20477;-86
2021/07/22 09:37:36;;;;;;;0.40;0.30;;;37.10;54.40;;;;;;5040135;28;20466;-84
2021/07/22 09:40:04;;;;;;;3.13;2.10;;;36.50;56.70;;;;;;5039202;28;20430;-84
2021/07/22 09:42:41;;;;;;;0.50;0.30;;;35.30;55.60;;;;;;5038658;28;20508;-84
2021/07/22 09:45:13;;;;;;;0.60;0.60;;;34.40;57.60;;;;;;5039095;28;20479;-85
2021/07/22 09:47:40;;;;;;;1.37;1.03;;;33.70;60.70;;;;;;5040275;28;20495;-87
2021/07/22 09:50:14;;;;;;;0.50;0.50;;;33.00;61.60;;;;;;5039338;28;20790;-84
2021/07/22 09:52:42;;;;;;;2.17;2.07;;;33.10;60.10;;;;;;5039574;28;20430;-86
2021/07/22 09:55:28;;;;;;;2.20;2.10;;;32.90;61.20;;;;;;5039504;28;20491;-86
2021/07/22 09:57:57;;;;;;;0.50;0.30;;;32.90;61.30;;;;;;5039728;28;20848;-85
2021/07/22 10:00:25;;;;;;;0.50;0.30;;;32.60;64.00;;;;;;5039442;28;20532;-86
2021/07/22 10:02:54;;;;;;;0.50;0.30;;;33.00;63.80;;;;;;5040291;28;20445;-83
2021/07/22 10:05:23;;;;;;;2.03;1.43;;;33.80;65.20;;;;;;5041441;28;20442;-84
2021/07/22 10:07:52;;;;;;;1.13;1.03;;;34.50;58.50;;;;;;5040200;28;20513;-84
2021/07/22 10:10:20;;;;;;;0.40;0.30;;;35.30;56.50;;;;;;5035338;28;20441;-83
2021/07/22 10:12:53;;;;;;;0.50;0.30;;;35.80;55.10;;;;;;5040702;28;20446;-84
2021/07/22 10:15:20;;;;;;;1.67;1.63;;;36.00;54.50;;;;;;5039575;28;20918;-83
2021/07/22 10:17:48;;;;;;;0.43;0.30;;;36.90;53.60;;;;;;5040775;28;20461;-85
2021/07/22 10:20:16;;;;;;;0.40;0.30;;;37.60;53.50;;;;;;5039885;28;20453;-82
2021/07/22 10:22:46;;;;;;;2.30;1.17;;;38.30;54.40;;;;;;5040397;28;20472;-84
2021/07/22 10:25:14;;;;;;;0.40;0.30;;;38.20;51.80;;;;;;5041051;28;20445;-83
2021/07/22 10:27:43;;;;;;;0.40;0.30;;;38.60;50.90;;;;;;5039894;28;20482;-86
2021/07/22 10:30:12;;;;;;;0.60;0.60;;;39.00;50.80;;;;;;5038844;28;20929;-83
2021/07/22 10:32:40;;;;;;;1.60;1.27;;;39.00;51.40;;;;;;5040105;28;20452;-81
2021/07/22 10:35:09;;;;;;;0.40;0.30;;;38.80;51.50;;;;;;5036269;28;20482;-84
2021/07/22 10:37:37;;;;;;;0.40;0.30;;;39.20;50.20;;;;;;5038687;28;20497;-83
2021/07/22 10:40:08;;;;;;;0.40;0.30;;;39.80;48.90;;;;;;5039501;28;20443;-83
2021/07/22 10:42:42;;;;;;;1.80;1.70;;;39.80;50.70;;;;;;5039484;28;20540;-86
2021/07/22 10:45:25;;;;;;;1.80;1.70;;;39.00;48.30;;;;;;5037926;28;20799;-86
2021/07/22 10:48:01;;;;;;;0.40;0.30;;;36.30;52.20;;;;;;5037831;28;20468;-86
2021/07/22 10:51:09;;;;;;;2.37;2.27;;;36.00;53.10;;;;;;5036596;28;20437;-85
2021/07/22 10:53:38;;;;;;;0.60;0.60;;;37.00;53.70;;;;;;5038951;28;20516;-83
2021/07/22 10:56:07;;;;;;;0.50;0.30;;;37.90;53.20;;;;;;5038155;28;20511;-87
2021/07/22 10:58:54;;;;;;;1.53;1.43;;;37.80;51.50;;;;;;5032389;28;20467;-85
2021/07/22 11:01:50;;;;;;;0.60;0.60;;;36.60;52.20;;;;;;5017392;28;20433;-84
2021/07/22 11:04:47;;;;;;;1.07;0.80;;;35.60;55.00;;;;;;5018485;28;20440;-86
2021/07/22 11:07:23;;;;;;;0.57;0.57;;;34.80;56.70;;;;;;5034456;28;20464;-84
2021/07/22 11:09:53;;;;;;;0.40;0.30;;;35.30;55.30;;;;;;5034044;28;20453;-86
2021/07/22 11:12:45;;;;;;;9.20;3.23;;;36.30;56.10;;;;;;5040977;28;20449;-86
2021/07/22 11:15:17;;;;;;;3.90;0.73;;;36.80;55.70;;;;;;5040749;28;20487;-86
2021/07/22 11:17:46;;;;;;;0.40;0.30;;;36.40;56.40;;;;;;5041842;28;20985;-86
2021/07/22 11:20:34;;;;;;;0.47;0.37;;;35.40;57.70;;;;;;5041160;28;20471;-87
2021/07/22 11:23:16;;;;;;;0.63;0.60;;;34.80;58.80;;;;;;5041650;28;20425;-87
2021/07/22 11:25:48;;;;;;;0.50;0.40;;;34.30;59.10;;;;;;5038781;28;20450;-85
2021/07/22 11:28:25;;;;;;;0.40;0.30;;;33.80;59.80;;;;;;5040387;28;20463;-85
2021/07/22 11:31:03;;;;;;;1.23;0.60;;;33.60;61.80;;;;;;5041276;28;20439;-87
2021/07/22 11:33:32;;;;;;;0.43;0.30;;;33.80;61.20;;;;;;5041254;28;21059;-87
2021/07/22 11:36:00;;;;;;;1.47;0.63;;;33.80;61.80;;;;;;5039341;28;20487;-86
2021/07/22 11:38:27;;;;;;;1.57;1.47;;;34.40;59.90;;;;;;5041273;28;20468;-87
2021/07/22 11:40:54;;;;;;;0.50;0.30;;;34.30;58.40;;;;;;5039609;28;20439;-87
2021/07/22 11:43:40;;;;;;;2.10;1.90;;;34.20;59.30;;;;;;5041761;28;20474;-86
2021/07/22 11:46:09;;;;;;;0.50;0.30;;;34.60;59.00;;;;;;5041318;28;20434;-87
2021/07/22 11:48:36;;;;;;;0.43;0.30;;;35.40;60.60;;;;;;5040263;28;20460;-86
2021/07/22 11:51:05;;;;;;;1.27;0.73;;;36.30;55.80;;;;;;5041236;28;20449;-87
2021/07/22 11:53:32;;;;;;;0.83;0.83;;;37.30;55.50;;;;;;5041263;28;20450;-82
2021/07/22 11:56:08;;;;;;;0.40;0.30;;;38.30;55.40;;;;;;5040601;28;20485;-83
2021/07/22 11:58:37;;;;;;;1.80;0.63;;;38.40;53.70;;;;;;5040843;28;20468;-85
2021/07/22 12:01:05;;;;;;;0.80;0.80;;;37.30;53.20;;;;;;5041018;28;20452;-85
2021/07/22 12:03:32;;;;;;;0.77;0.77;;;36.30;53.60;;;;;;5043710;28;20824;-85
2021/07/22 12:05:58;;;;;;;0.67;0.67;;;35.10;56.50;;;;;;5044270;28;20446;-82
2021/07/22 12:08:25;;;;;;;1.67;1.13;;;33.50;58.30;;;;;;5041012;28;20459;-86
2021/07/22 12:10:58;;;;;;;0.67;0.60;;;32.50;61.40;;;;;;5039099;28;20437;-84
2021/07/22 12:13:25;;;;;;;0.97;0.63;;;31.50;63.60;;;;;;5042546;28;20602;-87
2021/07/22 12:15:53;;;;;;;0.50;0.30;;;31.90;62.70;;;;;;5043134;28;20504;-87
2021/07/22 12:18:22;;;;;;;3.00;1.70;;;32.60;64.00;;;;;;5045150;28;20461;-87
2021/07/22 12:20:50;;;;;;;1.00;1.00;;;33.70;60.00;;;;;;5044555;28;20488;-84
2021/07/22 12:23:27;;;;;;;0.50;0.30;;;34.40;58.10;;;;;;5044862;28;20442;-87
2021/07/22 12:26:02;;;;;;;0.50;0.30;;;34.90;57.90;;;;;;5043198;28;20446;-86
2021/07/22 12:28:29;;;;;;;0.40;0.30;;;35.80;59.70;;;;;;5045122;28;20461;-85
2021/07/22 12:31:14;;;;;;;0.40;0.30;;;36.60;57.50;;;;;;5043951;28;20447;-85
2021/07/22 12:33:40;;;;;;;0.40;0.30;;;36.40;56.60;;;;;;5043678;28;20430;-85
2021/07/22 12:36:19;;;;;;;0.40;0.30;;;36.60;55.40;;;;;;5044406;28;20997;-86
2021/07/22 12:38:45;;;;;;;0.40;0.30;;;36.20;56.00;;;;;;5044118;28;20483;-86
2021/07/22 12:41:17;;;;;;;0.93;0.77;;;36.20;57.50;;;;;;5045017;28;20444;-86
2021/07/22 12:43:46;;;;;;;0.57;0.53;;;36.70;56.80;;;;;;5045127;28;20840;-86
2021/07/22 12:46:19;;;;;;;0.80;0.80;;;36.40;55.20;;;;;;5045426;28;20438;-86
2021/07/22 12:48:46;;;;;;;0.40;0.30;;;36.10;55.70;;;;;;5044372;28;21007;-85
2021/07/22 12:51:13;;;;;;;0.50;0.30;;;35.30;55.50;;;;;;5044230;28;20450;-85
2021/07/22 12:53:41;;;;;;;0.50;0.30;;;34.00;58.10;;;;;;5041460;28;20803;-84
2021/07/22 12:56:09;;;;;;;0.50;0.30;;;33.00;58.60;;;;;;5041412;28;20487;-85